sensor_id;sensor_type;location;lat;lon;timestamp;P1;durP1;ratioP1;P2;durP2;ratioP2
74269;SDS011;62754;48.252;11.654;2023-03-01T00:00:46;17.13;;;10.43;;
74269;SDS011;62754;48.252;11.654;2023-03-01T00:03:12;17.27;;;10.75;;
74269;SDS011;62754;48.252;11.654;2023-03-01T00:05:43;21.70;;;10.60;;
74269;SDS011;62754;48.252;11.654;2023-03-01T00:08:09;24.00;;;11.55;;
74269;SDS011;62754;48.252;11.654;2023-03-01T00:10:35;21.25;;;12.07;;
74269;SDS011;62754;48.252;11.654;2023-03-01T00:13:01;21.63;;;11.63;;
74269;SDS011;62754;48.252;11.654;2023-03-01T00:15:27;20.35;;;11.57;;
74269;SDS011;62754;48.252;11.654;2023-03-01T00:17:52;23.08;;;11.55;;
74269;SDS011;62754;48.252;11.654;2023-03-01T00:20:18;17.80;;;11.45;;
74269;SDS011;62754;48.252;11.654;2023-03-01T00:22:44;21.48;;;11.40;;
74269;SDS011;62754;48.252;11.654;2023-03-01T00:25:10;17.85;;;10.70;;
74269;SDS011;62754;48.252;11.654;2023-03-01T00:27:35;20.23;;;11.20;;
74269;SDS011;62754;48.252;11.654;2023-03-01T00:30:01;20.27;;;11.45;;
74269;SDS011;62754;48.252;11.654;2023-03-01T00:32:27;19.30;;;10.88;;
74269;SDS011;62754;48.252;11.654;2023-03-01T00:34:53;17.27;;;10.45;;
74269;SDS011;62754;48.252;11.654;2023-03-01T00:37:20;18.67;;;11.32;;
74269;SDS011;62754;48.252;11.654;2023-03-01T00:42:12;19.42;;;11.27;;
74269;SDS011;62754;48.252;11.654;2023-03-01T00:44:37;17.75;;;10.27;;
74269;SDS011;62754;48.252;11.654;2023-03-01T00:47:03;21.23;;;11.63;;
74269;SDS011;62754;48.252;11.654;2023-03-01T00:49:29;20.50;;;11.75;;
74269;SDS011;62754;48.252;11.654;2023-03-01T00:51:55;21.77;;;11.13;;
74269;SDS011;62754;48.252;11.654;2023-03-01T00:54:21;22.15;;;12.05;;
74269;SDS011;62754;48.252;11.654;2023-03-01T00:56:46;20.23;;;11.05;;
74269;SDS011;62754;48.252;11.654;2023-03-01T00:59:12;20.63;;;11.13;;
74269;SDS011;62754;48.252;11.654;2023-03-01T01:01:38;20.35;;;11.73;;
74269;SDS011;62754;48.252;11.654;2023-03-01T01:04:05;20.58;;;11.07;;
74269;SDS011;62754;48.252;11.654;2023-03-01T01:06:34;19.65;;;10.30;;
74269;SDS011;62754;48.252;11.654;2023-03-01T01:09:02;18.13;;;10.23;;
74269;SDS011;62754;48.252;11.654;2023-03-01T01:11:29;19.17;;;11.10;;
74269;SDS011;62754;48.252;11.654;2023-03-01T01:13:55;18.95;;;11.18;;
74269;SDS011;62754;48.252;11.654;2023-03-01T01:16:23;20.98;;;11.10;;
74269;SDS011;62754;48.252;11.654;2023-03-01T01:21:16;20.60;;;10.77;;
74269;SDS011;62754;48.252;11.654;2023-03-01T01:23:45;20.35;;;11.38;;
74269;SDS011;62754;48.252;11.654;2023-03-01T01:26:12;19.30;;;10.02;;
74269;SDS011;62754;48.252;11.654;2023-03-01T01:28:43;16.35;;;10.45;;
74269;SDS011;62754;48.252;11.654;2023-03-01T01:31:09;18.58;;;10.98;;
74269;SDS011;62754;48.252;11.654;2023-03-01T01:33:35;20.58;;;11.35;;
74269;SDS011;62754;48.252;11.654;2023-03-01T01:36:01;20.13;;;11.50;;
74269;SDS011;62754;48.252;11.654;2023-03-01T01:38:27;20.67;;;11.40;;
74269;SDS011;62754;48.252;11.654;2023-03-01T01:40:53;20.42;;;11.40;;
74269;SDS011;62754;48.252;11.654;2023-03-01T01:43:20;21.60;;;11.73;;
74269;SDS011;62754;48.252;11.654;2023-03-01T01:45:48;20.48;;;10.60;;
74269;SDS011;62754;48.252;11.654;2023-03-01T01:48:21;20.85;;;11.77;;
74269;SDS011;62754;48.252;11.654;2023-03-01T01:50:59;18.88;;;9.98;;
74269;SDS011;62754;48.252;11.654;2023-03-01T01:53:26;18.95;;;11.27;;
74269;SDS011;62754;48.252;11.654;2023-03-01T01:55:53;18.65;;;10.52;;
74269;SDS011;62754;48.252;11.654;2023-03-01T01:58:23;15.55;;;10.20;;
74269;SDS011;62754;48.252;11.654;2023-03-01T02:00:52;20.20;;;11.07;;
74269;SDS011;62754;48.252;11.654;2023-03-01T02:03:20;18.17;;;11.43;;
74269;SDS011;62754;48.252;11.654;2023-03-01T02:05:56;18.98;;;11.32;;
74269;SDS011;62754;48.252;11.654;2023-03-01T02:08:29;17.27;;;10.52;;
74269;SDS011;62754;48.252;11.654;2023-03-01T02:10:57;18.20;;;10.70;;
74269;SDS011;62754;48.252;11.654;2023-03-01T02:13:24;20.95;;;10.65;;
74269;SDS011;62754;48.252;11.654;2023-03-01T02:15:50;19.15;;;10.95;;
74269;SDS011;62754;48.252;11.654;2023-03-01T02:18:16;23.77;;;11.73;;
74269;SDS011;62754;48.252;11.654;2023-03-01T02:20:56;20.38;;;10.95;;
74269;SDS011;62754;48.252;11.654;2023-03-01T02:23:33;17.88;;;10.75;;
74269;SDS011;62754;48.252;11.654;2023-03-01T02:28:35;19.65;;;11.70;;
74269;SDS011;62754;48.252;11.654;2023-03-01T02:31:06;18.75;;;11.02;;
74269;SDS011;62754;48.252;11.654;2023-03-01T02:33:35;19.50;;;10.85;;
74269;SDS011;62754;48.252;11.654;2023-03-01T02:36:03;16.95;;;10.50;;
74269;SDS011;62754;48.252;11.654;2023-03-01T02:38:32;17.38;;;10.80;;
74269;SDS011;62754;48.252;11.654;2023-03-01T02:40:58;22.23;;;11.25;;
74269;SDS011;62754;48.252;11.654;2023-03-01T02:43:27;21.13;;;10.85;;
74269;SDS011;62754;48.252;11.654;2023-03-01T02:45:59;19.45;;;10.63;;
74269;SDS011;62754;48.252;11.654;2023-03-01T02:48:39;18.65;;;10.88;;
74269;SDS011;62754;48.252;11.654;2023-03-01T02:56:56;20.30;;;10.70;;
74269;SDS011;62754;48.252;11.654;2023-03-01T02:59:24;18.15;;;11.43;;
74269;SDS011;62754;48.252;11.654;2023-03-01T03:01:54;18.05;;;10.40;;
74269;SDS011;62754;48.252;11.654;2023-03-01T03:04:20;20.95;;;11.07;;
74269;SDS011;62754;48.252;11.654;2023-03-01T03:06:49;18.33;;;10.60;;
74269;SDS011;62754;48.252;11.654;2023-03-01T03:09:16;20.88;;;11.93;;
74269;SDS011;62754;48.252;11.654;2023-03-01T03:11:42;19.20;;;10.60;;
74269;SDS011;62754;48.252;11.654;2023-03-01T03:14:12;20.67;;;11.38;;
74269;SDS011;62754;48.252;11.654;2023-03-01T03:19:09;20.13;;;11.20;;
74269;SDS011;62754;48.252;11.654;2023-03-01T03:21:35;18.70;;;10.23;;
74269;SDS011;62754;48.252;11.654;2023-03-01T03:24:01;20.02;;;10.45;;
74269;SDS011;62754;48.252;11.654;2023-03-01T03:26:27;18.48;;;10.73;;
74269;SDS011;62754;48.252;11.654;2023-03-01T03:28:53;19.02;;;10.93;;
74269;SDS011;62754;48.252;11.654;2023-03-01T03:31:18;18.80;;;10.43;;
74269;SDS011;62754;48.252;11.654;2023-03-01T03:33:45;19.48;;;11.73;;
74269;SDS011;62754;48.252;11.654;2023-03-01T03:36:17;17.45;;;10.23;;
74269;SDS011;62754;48.252;11.654;2023-03-01T03:38:48;19.02;;;11.27;;
74269;SDS011;62754;48.252;11.654;2023-03-01T03:41:14;18.42;;;10.98;;
74269;SDS011;62754;48.252;11.654;2023-03-01T03:43:41;19.35;;;10.38;;
74269;SDS011;62754;48.252;11.654;2023-03-01T03:46:08;17.45;;;10.38;;
74269;SDS011;62754;48.252;11.654;2023-03-01T03:51:10;19.75;;;11.05;;
74269;SDS011;62754;48.252;11.654;2023-03-01T03:53:37;20.20;;;10.40;;
74269;SDS011;62754;48.252;11.654;2023-03-01T03:56:04;19.52;;;10.88;;
74269;SDS011;62754;48.252;11.654;2023-03-01T03:58:30;18.73;;;9.77;;
74269;SDS011;62754;48.252;11.654;2023-03-01T04:00:56;18.63;;;10.10;;
74269;SDS011;62754;48.252;11.654;2023-03-01T04:03:23;19.50;;;9.75;;
74269;SDS011;62754;48.252;11.654;2023-03-01T04:05:50;19.33;;;10.95;;
74269;SDS011;62754;48.252;11.654;2023-03-01T04:08:17;21.63;;;10.93;;
74269;SDS011;62754;48.252;11.654;2023-03-01T04:10:45;21.80;;;11.05;;
74269;SDS011;62754;48.252;11.654;2023-03-01T04:13:13;22.52;;;11.40;;
74269;SDS011;62754;48.252;11.654;2023-03-01T04:15:40;18.73;;;10.23;;
74269;SDS011;62754;48.252;11.654;2023-03-01T04:18:06;18.85;;;10.70;;
74269;SDS011;62754;48.252;11.654;2023-03-01T04:20:33;19.50;;;11.55;;
74269;SDS011;62754;48.252;11.654;2023-03-01T04:23:10;19.23;;;9.43;;
74269;SDS011;62754;48.252;11.654;2023-03-01T04:25:38;21.20;;;10.90;;
74269;SDS011;62754;48.252;11.654;2023-03-01T04:28:07;18.35;;;10.60;;
74269;SDS011;62754;48.252;11.654;2023-03-01T04:30:34;19.73;;;10.68;;
74269;SDS011;62754;48.252;11.654;2023-03-01T04:33:05;17.25;;;9.80;;
74269;SDS011;62754;48.252;11.654;2023-03-01T04:35:31;21.17;;;10.93;;
74269;SDS011;62754;48.252;11.654;2023-03-01T04:37:58;19.50;;;11.32;;
74269;SDS011;62754;48.252;11.654;2023-03-01T04:40:24;20.02;;;10.65;;
74269;SDS011;62754;48.252;11.654;2023-03-01T04:42:50;20.27;;;9.63;;
74269;SDS011;62754;48.252;11.654;2023-03-01T04:45:16;22.10;;;11.50;;
74269;SDS011;62754;48.252;11.654;2023-03-01T04:47:42;22.65;;;11.18;;
74269;SDS011;62754;48.252;11.654;2023-03-01T04:50:10;19.83;;;10.45;;
74269;SDS011;62754;48.252;11.654;2023-03-01T04:52:39;19.70;;;10.98;;
74269;SDS011;62754;48.252;11.654;2023-03-01T04:55:05;19.85;;;11.27;;
74269;SDS011;62754;48.252;11.654;2023-03-01T04:57:31;19.17;;;10.63;;
74269;SDS011;62754;48.252;11.654;2023-03-01T04:59:57;23.98;;;11.13;;
74269;SDS011;62754;48.252;11.654;2023-03-01T05:02:23;20.83;;;10.50;;
74269;SDS011;62754;48.252;11.654;2023-03-01T05:04:49;17.83;;;11.35;;
74269;SDS011;62754;48.252;11.654;2023-03-01T05:07:14;22.50;;;10.40;;
74269;SDS011;62754;48.252;11.654;2023-03-01T05:09:40;22.75;;;11.00;;
74269;SDS011;62754;48.252;11.654;2023-03-01T05:12:06;22.77;;;11.25;;
74269;SDS011;62754;48.252;11.654;2023-03-01T05:14:32;20.00;;;10.52;;
74269;SDS011;62754;48.252;11.654;2023-03-01T05:16:57;20.80;;;11.55;;
74269;SDS011;62754;48.252;11.654;2023-03-01T05:19:23;19.10;;;10.63;;
74269;SDS011;62754;48.252;11.654;2023-03-01T05:21:49;21.48;;;11.10;;
74269;SDS011;62754;48.252;11.654;2023-03-01T05:24:15;22.27;;;11.50;;
74269;SDS011;62754;48.252;11.654;2023-03-01T05:26:40;19.65;;;10.98;;
74269;SDS011;62754;48.252;11.654;2023-03-01T05:29:06;21.08;;;11.73;;
74269;SDS011;62754;48.252;11.654;2023-03-01T05:31:32;24.00;;;10.75;;
74269;SDS011;62754;48.252;11.654;2023-03-01T05:33:57;21.38;;;11.23;;
74269;SDS011;62754;48.252;11.654;2023-03-01T05:36:23;21.52;;;11.18;;
74269;SDS011;62754;48.252;11.654;2023-03-01T05:38:49;18.73;;;11.23;;
74269;SDS011;62754;48.252;11.654;2023-03-01T05:41:15;22.50;;;11.32;;
74269;SDS011;62754;48.252;11.654;2023-03-01T05:43:41;20.35;;;11.30;;
74269;SDS011;62754;48.252;11.654;2023-03-01T05:46:06;19.70;;;10.80;;
74269;SDS011;62754;48.252;11.654;2023-03-01T05:48:32;20.45;;;10.88;;
74269;SDS011;62754;48.252;11.654;2023-03-01T05:50:59;18.83;;;10.38;;
74269;SDS011;62754;48.252;11.654;2023-03-01T05:53:25;21.05;;;11.15;;
74269;SDS011;62754;48.252;11.654;2023-03-01T05:55:51;18.75;;;10.93;;
74269;SDS011;62754;48.252;11.654;2023-03-01T05:58:17;20.65;;;10.95;;
74269;SDS011;62754;48.252;11.654;2023-03-01T06:00:45;21.35;;;11.18;;
74269;SDS011;62754;48.252;11.654;2023-03-01T06:03:13;20.92;;;11.30;;
74269;SDS011;62754;48.252;11.654;2023-03-01T06:05:40;22.25;;;10.98;;
74269;SDS011;62754;48.252;11.654;2023-03-01T06:08:07;24.40;;;12.05;;
74269;SDS011;62754;48.252;11.654;2023-03-01T06:10:34;19.38;;;11.27;;
74269;SDS011;62754;48.252;11.654;2023-03-01T06:13:00;19.90;;;10.70;;
74269;SDS011;62754;48.252;11.654;2023-03-01T06:15:26;20.60;;;11.63;;
74269;SDS011;62754;48.252;11.654;2023-03-01T06:17:53;20.90;;;10.93;;
74269;SDS011;62754;48.252;11.654;2023-03-01T06:20:21;17.58;;;10.75;;
74269;SDS011;62754;48.252;11.654;2023-03-01T06:22:48;20.25;;;10.80;;
74269;SDS011;62754;48.252;11.654;2023-03-01T06:25:16;18.85;;;10.48;;
74269;SDS011;62754;48.252;11.654;2023-03-01T06:27:43;18.52;;;9.88;;
74269;SDS011;62754;48.252;11.654;2023-03-01T06:30:10;21.08;;;11.18;;
74269;SDS011;62754;48.252;11.654;2023-03-01T06:32:38;18.95;;;10.82;;
74269;SDS011;62754;48.252;11.654;2023-03-01T06:35:04;19.92;;;11.35;;
74269;SDS011;62754;48.252;11.654;2023-03-01T06:37:30;20.23;;;10.80;;
74269;SDS011;62754;48.252;11.654;2023-03-01T06:39:56;21.30;;;10.85;;
74269;SDS011;62754;48.252;11.654;2023-03-01T06:42:22;21.42;;;10.82;;
74269;SDS011;62754;48.252;11.654;2023-03-01T06:44:47;19.70;;;11.25;;
74269;SDS011;62754;48.252;11.654;2023-03-01T06:47:13;20.20;;;11.48;;
74269;SDS011;62754;48.252;11.654;2023-03-01T06:49:39;24.75;;;14.32;;
74269;SDS011;62754;48.252;11.654;2023-03-01T06:52:05;17.35;;;10.60;;
74269;SDS011;62754;48.252;11.654;2023-03-01T06:54:30;27.20;;;16.83;;
74269;SDS011;62754;48.252;11.654;2023-03-01T06:56:56;20.25;;;11.40;;
74269;SDS011;62754;48.252;11.654;2023-03-01T06:59:22;21.00;;;11.70;;
74269;SDS011;62754;48.252;11.654;2023-03-01T07:01:48;19.98;;;11.90;;
74269;SDS011;62754;48.252;11.654;2023-03-01T07:04:13;22.60;;;12.68;;
74269;SDS011;62754;48.252;11.654;2023-03-01T07:06:39;21.02;;;11.65;;
74269;SDS011;62754;48.252;11.654;2023-03-01T07:09:05;20.50;;;11.93;;
74269;SDS011;62754;48.252;11.654;2023-03-01T07:11:32;22.95;;;12.60;;
74269;SDS011;62754;48.252;11.654;2023-03-01T07:13:58;21.27;;;11.00;;
74269;SDS011;62754;48.252;11.654;2023-03-01T07:16:24;20.92;;;11.18;;
74269;SDS011;62754;48.252;11.654;2023-03-01T07:18:49;21.10;;;11.00;;
74269;SDS011;62754;48.252;11.654;2023-03-01T07:21:15;20.63;;;10.65;;
74269;SDS011;62754;48.252;11.654;2023-03-01T07:23:41;20.73;;;11.18;;
74269;SDS011;62754;48.252;11.654;2023-03-01T07:26:07;21.67;;;11.73;;
74269;SDS011;62754;48.252;11.654;2023-03-01T07:28:33;20.75;;;11.73;;
74269;SDS011;62754;48.252;11.654;2023-03-01T07:31:02;22.15;;;10.73;;
74269;SDS011;62754;48.252;11.654;2023-03-01T07:33:28;21.15;;;11.52;;
74269;SDS011;62754;48.252;11.654;2023-03-01T07:35:58;19.58;;;10.32;;
74269;SDS011;62754;48.252;11.654;2023-03-01T07:38:25;21.67;;;11.93;;
74269;SDS011;62754;48.252;11.654;2023-03-01T07:40:52;22.80;;;11.88;;
74269;SDS011;62754;48.252;11.654;2023-03-01T07:43:17;21.15;;;12.93;;
74269;SDS011;62754;48.252;11.654;2023-03-01T07:45:43;19.83;;;11.57;;
74269;SDS011;62754;48.252;11.654;2023-03-01T07:48:09;22.08;;;11.65;;
74269;SDS011;62754;48.252;11.654;2023-03-01T07:50:35;19.65;;;11.52;;
74269;SDS011;62754;48.252;11.654;2023-03-01T07:53:01;24.05;;;12.38;;
74269;SDS011;62754;48.252;11.654;2023-03-01T07:55:26;22.55;;;11.55;;
74269;SDS011;62754;48.252;11.654;2023-03-01T07:57:52;23.65;;;11.95;;
74269;SDS011;62754;48.252;11.654;2023-03-01T08:00:18;22.92;;;12.65;;
74269;SDS011;62754;48.252;11.654;2023-03-01T08:02:44;23.27;;;14.20;;
74269;SDS011;62754;48.252;11.654;2023-03-01T08:05:10;19.60;;;10.73;;
74269;SDS011;62754;48.252;11.654;2023-03-01T08:07:36;23.77;;;12.05;;
74269;SDS011;62754;48.252;11.654;2023-03-01T08:10:02;21.83;;;11.40;;
74269;SDS011;62754;48.252;11.654;2023-03-01T08:12:28;22.83;;;12.40;;
74269;SDS011;62754;48.252;11.654;2023-03-01T08:14:54;21.23;;;12.90;;
74269;SDS011;62754;48.252;11.654;2023-03-01T08:17:20;22.33;;;11.68;;
74269;SDS011;62754;48.252;11.654;2023-03-01T08:19:46;24.98;;;12.40;;
74269;SDS011;62754;48.252;11.654;2023-03-01T08:22:11;21.45;;;11.27;;
74269;SDS011;62754;48.252;11.654;2023-03-01T08:24:37;21.30;;;12.20;;
74269;SDS011;62754;48.252;11.654;2023-03-01T08:27:03;22.38;;;12.27;;
74269;SDS011;62754;48.252;11.654;2023-03-01T08:29:32;21.85;;;12.43;;
74269;SDS011;62754;48.252;11.654;2023-03-01T08:31:58;23.83;;;13.00;;
74269;SDS011;62754;48.252;11.654;2023-03-01T08:34:24;22.38;;;12.43;;
74269;SDS011;62754;48.252;11.654;2023-03-01T08:36:50;22.52;;;11.70;;
74269;SDS011;62754;48.252;11.654;2023-03-01T08:39:16;23.60;;;13.85;;
74269;SDS011;62754;48.252;11.654;2023-03-01T08:44:09;23.35;;;11.80;;
74269;SDS011;62754;48.252;11.654;2023-03-01T08:46:37;20.20;;;11.32;;
74269;SDS011;62754;48.252;11.654;2023-03-01T08:49:06;23.38;;;12.90;;
74269;SDS011;62754;48.252;11.654;2023-03-01T08:51:33;23.75;;;13.25;;
74269;SDS011;62754;48.252;11.654;2023-03-01T08:53:59;23.65;;;12.95;;
74269;SDS011;62754;48.252;11.654;2023-03-01T08:56:25;23.50;;;13.23;;
74269;SDS011;62754;48.252;11.654;2023-03-01T08:58:51;21.60;;;11.98;;
74269;SDS011;62754;48.252;11.654;2023-03-01T09:01:18;23.35;;;12.35;;
74269;SDS011;62754;48.252;11.654;2023-03-01T09:06:10;21.48;;;11.27;;
74269;SDS011;62754;48.252;11.654;2023-03-01T09:08:37;21.98;;;12.35;;
74269;SDS011;62754;48.252;11.654;2023-03-01T09:11:06;25.63;;;12.60;;
74269;SDS011;62754;48.252;11.654;2023-03-01T09:13:33;27.75;;;12.98;;
74269;SDS011;62754;48.252;11.654;2023-03-01T09:16:00;20.75;;;11.68;;
74269;SDS011;62754;48.252;11.654;2023-03-01T09:18:28;23.63;;;12.93;;
74269;SDS011;62754;48.252;11.654;2023-03-01T09:21:00;21.52;;;12.45;;
74269;SDS011;62754;48.252;11.654;2023-03-01T09:23:27;21.30;;;12.48;;
74269;SDS011;62754;48.252;11.654;2023-03-01T09:25:53;20.33;;;12.38;;
74269;SDS011;62754;48.252;11.654;2023-03-01T09:28:18;22.85;;;12.73;;
74269;SDS011;62754;48.252;11.654;2023-03-01T09:30:44;21.88;;;12.25;;
74269;SDS011;62754;48.252;11.654;2023-03-01T09:33:10;22.42;;;12.27;;
74269;SDS011;62754;48.252;11.654;2023-03-01T09:35:36;25.42;;;13.02;;
74269;SDS011;62754;48.252;11.654;2023-03-01T09:38:01;23.60;;;12.07;;
74269;SDS011;62754;48.252;11.654;2023-03-01T09:40:27;20.55;;;12.52;;
74269;SDS011;62754;48.252;11.654;2023-03-01T09:43:07;23.10;;;12.35;;
74269;SDS011;62754;48.252;11.654;2023-03-01T09:45:41;20.05;;;12.07;;
74269;SDS011;62754;48.252;11.654;2023-03-01T09:48:12;23.42;;;13.50;;
74269;SDS011;62754;48.252;11.654;2023-03-01T09:50:43;22.15;;;13.05;;
74269;SDS011;62754;48.252;11.654;2023-03-01T09:53:17;22.58;;;13.20;;
74269;SDS011;62754;48.252;11.654;2023-03-01T09:55:48;21.67;;;13.15;;
74269;SDS011;62754;48.252;11.654;2023-03-01T10:00:59;21.50;;;12.40;;
74269;SDS011;62754;48.252;11.654;2023-03-01T10:03:36;25.08;;;13.55;;
74269;SDS011;62754;48.252;11.654;2023-03-01T10:06:15;21.30;;;12.55;;
74269;SDS011;62754;48.252;11.654;2023-03-01T10:08:48;25.65;;;13.82;;
74269;SDS011;62754;48.252;11.654;2023-03-01T10:11:22;20.63;;;12.50;;
74269;SDS011;62754;48.252;11.654;2023-03-01T10:19:27;22.98;;;14.10;;
74269;SDS011;62754;48.252;11.654;2023-03-01T10:21:58;23.77;;;13.23;;
74269;SDS011;62754;48.252;11.654;2023-03-01T10:24:30;21.23;;;13.93;;
74269;SDS011;62754;48.252;11.654;2023-03-01T10:27:01;21.65;;;14.65;;
74269;SDS011;62754;48.252;11.654;2023-03-01T10:29:46;23.42;;;13.65;;
74269;SDS011;62754;48.252;11.654;2023-03-01T10:32:21;21.45;;;12.85;;
74269;SDS011;62754;48.252;11.654;2023-03-01T10:34:47;19.17;;;12.75;;
74269;SDS011;62754;48.252;11.654;2023-03-01T10:37:14;21.88;;;13.07;;
74269;SDS011;62754;48.252;11.654;2023-03-01T10:39:58;22.20;;;13.20;;
74269;SDS011;62754;48.252;11.654;2023-03-01T10:42:31;22.63;;;13.43;;
74269;SDS011;62754;48.252;11.654;2023-03-01T10:45:14;19.42;;;12.75;;
74269;SDS011;62754;48.252;11.654;2023-03-01T10:50:29;21.40;;;13.18;;
74269;SDS011;62754;48.252;11.654;2023-03-01T10:53:03;22.83;;;12.50;;
74269;SDS011;62754;48.252;11.654;2023-03-01T10:55:36;21.67;;;12.85;;
74269;SDS011;62754;48.252;11.654;2023-03-01T10:58:07;21.30;;;13.00;;
74269;SDS011;62754;48.252;11.654;2023-03-01T11:00:33;21.83;;;12.27;;
74269;SDS011;62754;48.252;11.654;2023-03-01T11:03:13;20.17;;;12.98;;
74269;SDS011;62754;48.252;11.654;2023-03-01T11:08:29;21.35;;;13.32;;
74269;SDS011;62754;48.252;11.654;2023-03-01T11:11:05;22.25;;;13.07;;
74269;SDS011;62754;48.252;11.654;2023-03-01T11:16:26;20.55;;;13.40;;
74269;SDS011;62754;48.252;11.654;2023-03-01T11:18:58;18.73;;;12.85;;
74269;SDS011;62754;48.252;11.654;2023-03-01T11:21:26;21.55;;;12.98;;
74269;SDS011;62754;48.252;11.654;2023-03-01T11:23:57;19.00;;;11.57;;
74269;SDS011;62754;48.252;11.654;2023-03-01T11:26:25;18.77;;;12.82;;
74269;SDS011;62754;48.252;11.654;2023-03-01T11:28:53;18.75;;;12.57;;
74269;SDS011;62754;48.252;11.654;2023-03-01T11:31:23;19.23;;;12.63;;
74269;SDS011;62754;48.252;11.654;2023-03-01T11:36:32;17.75;;;11.77;;
74269;SDS011;62754;48.252;11.654;2023-03-01T11:39:02;19.88;;;13.32;;
74269;SDS011;62754;48.252;11.654;2023-03-01T11:41:36;18.80;;;12.85;;
74269;SDS011;62754;48.252;11.654;2023-03-01T11:44:23;18.80;;;13.07;;
74269;SDS011;62754;48.252;11.654;2023-03-01T11:52:39;23.75;;;14.23;;
74269;SDS011;62754;48.252;11.654;2023-03-01T12:08:56;19.95;;;13.10;;
74269;SDS011;62754;48.252;11.654;2023-03-01T12:35:51;18.42;;;12.50;;
74269;SDS011;62754;48.252;11.654;2023-03-01T12:50:03;16.92;;;12.07;;
74269;SDS011;62754;48.252;11.654;2023-03-01T12:55:25;21.55;;;12.73;;
74269;SDS011;62754;48.252;11.654;2023-03-01T12:57:58;16.42;;;12.15;;
74269;SDS011;62754;48.252;11.654;2023-03-01T13:03:05;19.42;;;12.90;;
74269;SDS011;62754;48.252;11.654;2023-03-01T13:05:55;18.35;;;12.30;;
74269;SDS011;62754;48.252;11.654;2023-03-01T13:08:39;18.10;;;11.82;;
74269;SDS011;62754;48.252;11.654;2023-03-01T13:11:24;18.70;;;12.93;;
74269;SDS011;62754;48.252;11.654;2023-03-01T13:13:50;17.20;;;12.10;;
74269;SDS011;62754;48.252;11.654;2023-03-01T13:16:58;17.38;;;12.77;;
74269;SDS011;62754;48.252;11.654;2023-03-01T13:19:13;17.02;;;12.60;;
74269;SDS011;62754;48.252;11.654;2023-03-01T13:21:42;16.60;;;12.70;;
74269;SDS011;62754;48.252;11.654;2023-03-01T13:29:55;17.50;;;12.15;;
74269;SDS011;62754;48.252;11.654;2023-03-01T13:32:27;17.23;;;12.05;;
74269;SDS011;62754;48.252;11.654;2023-03-01T13:37:27;17.13;;;12.52;;
74269;SDS011;62754;48.252;11.654;2023-03-01T13:39:55;18.15;;;13.10;;
74269;SDS011;62754;48.252;11.654;2023-03-01T13:42:33;17.02;;;12.07;;
74269;SDS011;62754;48.252;11.654;2023-03-01T13:45:01;16.83;;;12.05;;
74269;SDS011;62754;48.252;11.654;2023-03-01T13:47:26;18.20;;;11.73;;
74269;SDS011;62754;48.252;11.654;2023-03-01T13:49:57;17.00;;;12.13;;
74269;SDS011;62754;48.252;11.654;2023-03-01T13:54:53;17.48;;;12.27;;
74269;SDS011;62754;48.252;11.654;2023-03-01T13:57:20;16.17;;;11.25;;
74269;SDS011;62754;48.252;11.654;2023-03-01T13:59:51;15.40;;;10.55;;
74269;SDS011;62754;48.252;11.654;2023-03-01T14:02:16;17.50;;;11.50;;
74269;SDS011;62754;48.252;11.654;2023-03-01T14:04:42;17.40;;;12.32;;
74269;SDS011;62754;48.252;11.654;2023-03-01T14:07:26;18.08;;;12.65;;
74269;SDS011;62754;48.252;11.654;2023-03-01T14:09:54;18.20;;;11.60;;
74269;SDS011;62754;48.252;11.654;2023-03-01T14:20:44;18.40;;;11.25;;
74269;SDS011;62754;48.252;11.654;2023-03-01T14:23:14;19.13;;;11.52;;
74269;SDS011;62754;48.252;11.654;2023-03-01T14:26:02;16.33;;;10.93;;
74269;SDS011;62754;48.252;11.654;2023-03-01T14:28:28;18.52;;;11.50;;
74269;SDS011;62754;48.252;11.654;2023-03-01T14:30:57;17.23;;;11.00;;
74269;SDS011;62754;48.252;11.654;2023-03-01T14:33:25;15.82;;;10.38;;
74269;SDS011;62754;48.252;11.654;2023-03-01T14:38:40;16.98;;;10.48;;
74269;SDS011;62754;48.252;11.654;2023-03-01T14:43:35;16.60;;;10.77;;
74269;SDS011;62754;48.252;11.654;2023-03-01T14:46:04;16.73;;;10.55;;
74269;SDS011;62754;48.252;11.654;2023-03-01T14:48:29;15.93;;;10.02;;
74269;SDS011;62754;48.252;11.654;2023-03-01T14:50:56;18.63;;;10.55;;
74269;SDS011;62754;48.252;11.654;2023-03-01T14:53:24;16.38;;;10.55;;
74269;SDS011;62754;48.252;11.654;2023-03-01T14:55:56;15.20;;;10.40;;
74269;SDS011;62754;48.252;11.654;2023-03-01T14:58:26;16.42;;;11.40;;
74269;SDS011;62754;48.252;11.654;2023-03-01T15:00:53;16.27;;;10.65;;
74269;SDS011;62754;48.252;11.654;2023-03-01T15:05:56;14.70;;;9.32;;
74269;SDS011;62754;48.252;11.654;2023-03-01T15:08:25;14.65;;;9.20;;
74269;SDS011;62754;48.252;11.654;2023-03-01T15:10:56;15.40;;;9.52;;
74269;SDS011;62754;48.252;11.654;2023-03-01T15:13:42;14.20;;;9.23;;
74269;SDS011;62754;48.252;11.654;2023-03-01T15:16:11;16.30;;;9.60;;
74269;SDS011;62754;48.252;11.654;2023-03-01T15:18:52;14.77;;;9.63;;
74269;SDS011;62754;48.252;11.654;2023-03-01T15:21:24;13.77;;;9.10;;
74269;SDS011;62754;48.252;11.654;2023-03-01T15:23:51;13.63;;;8.88;;
74269;SDS011;62754;48.252;11.654;2023-03-01T15:26:23;15.85;;;9.32;;
74269;SDS011;62754;48.252;11.654;2023-03-01T15:28:57;16.38;;;9.73;;
74269;SDS011;62754;48.252;11.654;2023-03-01T15:31:25;13.70;;;9.10;;
74269;SDS011;62754;48.252;11.654;2023-03-01T15:34:07;14.80;;;9.25;;
74269;SDS011;62754;48.252;11.654;2023-03-01T15:36:55;16.55;;;9.10;;
74269;SDS011;62754;48.252;11.654;2023-03-01T15:42:11;14.60;;;8.82;;
74269;SDS011;62754;48.252;11.654;2023-03-01T15:44:38;16.88;;;9.55;;
74269;SDS011;62754;48.252;11.654;2023-03-01T15:47:23;18.42;;;10.38;;
74269;SDS011;62754;48.252;11.654;2023-03-01T15:49:54;14.80;;;8.55;;
74269;SDS011;62754;48.252;11.654;2023-03-01T15:52:34;15.43;;;8.27;;
74269;SDS011;62754;48.252;11.654;2023-03-01T15:57:48;14.13;;;8.57;;
74269;SDS011;62754;48.252;11.654;2023-03-01T16:00:17;12.95;;;8.20;;
74269;SDS011;62754;48.252;11.654;2023-03-01T16:02:43;16.35;;;8.70;;
74269;SDS011;62754;48.252;11.654;2023-03-01T16:05:20;14.40;;;8.18;;
74269;SDS011;62754;48.252;11.654;2023-03-01T16:07:48;15.23;;;8.73;;
74269;SDS011;62754;48.252;11.654;2023-03-01T16:10:14;14.68;;;8.85;;
74269;SDS011;62754;48.252;11.654;2023-03-01T16:12:40;15.45;;;8.52;;
74269;SDS011;62754;48.252;11.654;2023-03-01T16:15:19;14.55;;;8.88;;
74269;SDS011;62754;48.252;11.654;2023-03-01T16:17:45;13.88;;;8.93;;
74269;SDS011;62754;48.252;11.654;2023-03-01T16:20:11;14.23;;;8.52;;
74269;SDS011;62754;48.252;11.654;2023-03-01T16:22:37;16.08;;;8.82;;
74269;SDS011;62754;48.252;11.654;2023-03-01T16:25:03;14.90;;;8.18;;
74269;SDS011;62754;48.252;11.654;2023-03-01T16:27:29;18.60;;;9.10;;
74269;SDS011;62754;48.252;11.654;2023-03-01T16:29:55;13.88;;;7.95;;
74269;SDS011;62754;48.252;11.654;2023-03-01T16:32:21;17.17;;;9.55;;
74269;SDS011;62754;48.252;11.654;2023-03-01T16:34:46;24.10;;;12.25;;